Time;durP1;ratioP1;P1;durP2;ratioP2;P2;SDS_P1;SDS_P2;PMS_P1;PMS_P2;Temp;Humidity;BMP_temperature;BMP_pressure;BME280_temperature;BME280_humidity;BME280_pressure;Samples;Min_cycle;Max_cycle;Signal;HPM_P1;HPM_P2
2022/06/20 00:00:04;;;;;;;;;;;;;;;27.72;31.58;98863.06;4494601;31;35343;-84
2022/06/20 00:02:32;;;;;;;;;;;;;;;27.98;31.09;98859.66;4516117;31;34162;-85
2022/06/20 00:04:59;;;;;;;;;;;;;;;28.18;30.76;98865.53;4514751;31;33298;-84
2022/06/20 00:07:27;;;;;;;;;;;;;;;28.11;30.94;98857.94;4514401;31;34362;-85
2022/06/20 00:09:54;;;;;;;;;;;;;;;28.02;31.36;98855.84;4508892;31;34427;-85
2022/06/20 00:12:23;;;;;;;;;;;;;;;27.98;31.05;98859.66;4499741;31;34234;-85
2022/06/20 00:14:54;;;;;;;;;;;;;;;27.88;31.24;98855.84;4498319;31;34221;-85
2022/06/20 00:17:22;;;;;;;;;;;;;;;28.05;30.91;98850.31;4499785;31;34984;-85
2022/06/20 00:19:50;;;;;;;;;;;;;;;27.94;30.97;98839.50;4505202;31;34516;-85
2022/06/20 00:22:17;;;;;;;;;;;;;;;28.04;30.92;98832.63;4514236;31;34188;-86
2022/06/20 00:24:45;;;;;;;;;;;;;;;28.05;30.88;98831.66;4515619;31;34122;-84
2022/06/20 00:27:12;;;;;;;;;;;;;;;27.84;31.27;98835.69;4514525;31;34177;-85
2022/06/20 00:29:40;;;;;;;;;;;;;;;27.96;31.06;98829.59;4506583;31;35285;-84
2022/06/20 00:32:08;;;;;;;;;;;;;;;27.88;31.23;98832.75;4499664;31;34874;-88
2022/06/20 00:34:35;;;;;;;;;;;;;;;28.02;31.03;98839.00;4499632;31;34126;-85
2022/06/20 00:37:02;;;;;;;;;;;;;;;27.93;31.27;98835.13;4485504;31;33827;-85
2022/06/20 00:39:30;;;;;;;;;;;;;;;27.98;31.14;98833.00;4488891;31;34040;-85
2022/06/20 00:41:58;;;;;;;;;;;;;;;28.00;30.88;98828.47;4513601;31;33916;-85
2022/06/20 00:44:48;;;;;;;;;;;;;;;27.96;31.21;98826.94;4514332;31;34110;-86
2022/06/20 00:47:34;;;;;;;;;;;;;;;27.93;31.43;98834.28;4514361;31;34703;-87
2022/06/20 00:50:24;;;;;;;;;;;;;;;27.99;31.35;98826.72;4497095;31;35128;-85
2022/06/20 00:53:13;;;;;;;;;;;;;;;27.86;31.72;98831.12;4482794;31;35630;-84
2022/06/20 00:56:07;;;;;;;;;;;;;;;27.94;31.86;98815.50;4486570;31;34031;-86
2022/06/20 00:58:55;;;;;;;;;;;;;;;28.00;31.74;98804.47;4487245;31;34861;-86
2022/06/20 01:01:42;;;;;;;;;;;;;;;27.83;31.95;98799.34;4482076;32;35071;-84
2022/06/20 01:04:38;;;;;;;;;;;;;;;27.77;32.36;98802.41;4482782;32;35656;-84
2022/06/20 01:07:26;;;;;;;;;;;;;;;27.84;32.21;98796.63;4482478;32;34974;-84
2022/06/20 01:10:12;;;;;;;;;;;;;;;27.78;32.46;98804.97;4482820;31;34895;-86
2022/06/20 01:12:58;;;;;;;;;;;;;;;27.91;32.45;98797.06;4482454;32;35168;-85
2022/06/20 01:15:44;;;;;;;;;;;;;;;27.87;32.48;98799.06;4483582;32;34962;-84
2022/06/20 01:18:31;;;;;;;;;;;;;;;27.69;32.90;98797.53;4482603;32;35007;-85
2022/06/20 01:21:18;;;;;;;;;;;;;;;27.77;32.65;98797.06;4496623;31;35352;-84
2022/06/20 01:24:05;;;;;;;;;;;;;;;27.73;32.82;98784.88;4497715;31;34670;-84
2022/06/20 01:27:12;;;;;;;;;;;;;;;27.79;32.62;98768.53;4499085;31;34544;-85
2022/06/20 01:29:58;;;;;;;;;;;;;;;27.65;33.03;98775.59;4492383;31;34036;-84
2022/06/20 01:32:44;;;;;;;;;;;;;;;27.77;32.84;98757.13;4482251;32;34833;-84
2022/06/20 01:38:35;;;;;;;;;;;;;;;27.82;32.59;98763.03;4483635;32;35772;-85
2022/06/20 01:44:25;;;;;;;;;;;;;;;27.68;33.17;98774.53;4509353;31;34560;-85
2022/06/20 01:47:11;;;;;;;;;;;;;;;27.52;33.48;98765.78;4515088;31;36017;-84
2022/06/20 01:50:02;;;;;;;;;;;;;;;27.67;33.07;98763.97;4509676;31;34355;-84
2022/06/20 01:52:48;;;;;;;;;;;;;;;27.59;33.23;98767.13;4499007;31;34156;-85
2022/06/20 01:55:34;;;;;;;;;;;;;;;27.45;33.77;98767.13;4499181;31;34537;-84
2022/06/20 01:58:30;;;;;;;;;;;;;;;27.46;33.74;98767.03;4497939;31;35751;-85
2022/06/20 02:01:16;;;;;;;;;;;;;;;27.42;33.69;98765.50;4483711;31;35576;-84
2022/06/20 02:04:03;;;;;;;;;;;;;;;27.59;33.36;98759.13;4483300;32;33695;-86
2022/06/20 02:06:49;;;;;;;;;;;;;;;27.59;33.12;98751.16;4483182;32;35836;-84
2022/06/20 02:09:36;;;;;;;;;;;;;;;27.44;33.40;98752.13;4487015;31;35948;-84
2022/06/20 02:12:21;;;;;;;;;;;;;;;27.52;33.32;98740.03;4513841;31;34355;-85
2022/06/20 02:15:07;;;;;;;;;;;;;;;27.52;33.19;98725.84;4513849;31;34938;-85
2022/06/20 02:17:53;;;;;;;;;;;;;;;27.51;33.08;98733.00;4513636;31;35674;-84
2022/06/20 02:20:45;;;;;;;;;;;;;;;27.24;33.90;98740.91;4505313;31;35169;-84
2022/06/20 02:23:32;;;;;;;;;;;;;;;27.38;33.65;98737.38;4497832;31;34507;-85
2022/06/20 02:26:18;;;;;;;;;;;;;;;27.47;33.26;98727.97;4498366;31;34800;-85
2022/06/20 02:29:09;;;;;;;;;;;;;;;27.37;33.58;98728.53;4497785;31;35475;-84
2022/06/20 02:31:56;;;;;;;;;;;;;;;27.39;33.62;98721.31;4481866;32;34762;-86
2022/06/20 02:34:42;;;;;;;;;;;;;;;27.38;33.60;98726.72;4480312;32;34915;-85
2022/06/20 02:37:28;;;;;;;;;;;;;;;27.39;33.59;98717.81;4481698;32;34160;-86
2022/06/20 02:40:15;;;;;;;;;;;;;;;27.24;34.03;98722.28;4485581;31;34545;-85
2022/06/20 02:43:03;;;;;;;;;;;;;;;27.22;34.13;98716.19;4497479;31;35138;-85
2022/06/20 02:45:49;;;;;;;;;;;;;;;27.17;34.23;98713.81;4497377;31;34804;-87
2022/06/20 02:48:35;;;;;;;;;;;;;;;27.05;34.52;98719.87;4500085;31;33617;-85
2022/06/20 02:51:23;;;;;;;;;;;;;;;27.03;34.69;98720.91;4513352;31;34875;-85
2022/06/20 02:54:10;;;;;;;;;;;;;;;27.16;34.45;98719.22;4512978;31;35956;-86
2022/06/20 02:57:03;;;;;;;;;;;;;;;27.20;34.17;98718.09;4513055;31;35592;-85
2022/06/20 02:59:50;;;;;;;;;;;;;;;27.19;34.49;98715.53;4495020;31;34190;-85
2022/06/20 03:02:36;;;;;;;;;;;;;;;27.26;34.37;98722.19;4498815;31;34872;-84
2022/06/20 03:05:22;;;;;;;;;;;;;;;27.31;34.51;98718.25;4498219;31;35125;-84
2022/06/20 03:08:10;;;;;;;;;;;;;;;27.17;34.79;98721.81;4496963;31;34890;-84
2022/06/20 03:10:57;;;;;;;;;;;;;;;27.27;34.46;98718.56;4500085;31;34161;-85
2022/06/20 03:13:42;;;;;;;;;;;;;;;27.08;35.08;98709.03;4512818;31;34865;-84
2022/06/20 03:16:28;;;;;;;;;;;;;;;27.14;35.09;98719.31;4513988;31;35746;-84
2022/06/20 03:19:16;;;;;;;;;;;;;;;27.09;35.25;98715.22;4502698;31;34900;-84
2022/06/20 03:22:03;;;;;;;;;;;;;;;27.25;34.79;98709.84;4497947;31;34080;-84
2022/06/20 03:24:49;;;;;;;;;;;;;;;27.07;35.24;98706.47;4497028;31;34504;-85
2022/06/20 03:27:35;;;;;;;;;;;;;;;27.11;35.30;98705.34;4496688;31;34831;-85
2022/06/20 03:30:23;;;;;;;;;;;;;;;27.13;35.12;98706.97;4480976;32;35765;-87
2022/06/20 03:33:14;;;;;;;;;;;;;;;27.23;35.19;98712.56;4482191;32;34944;-86
2022/06/20 03:36:00;;;;;;;;;;;;;;;27.15;35.40;98710.38;4506635;31;35451;-85
2022/06/20 03:38:46;;;;;;;;;;;;;;;27.35;34.98;98706.50;4512419;31;35197;-85
2022/06/20 03:41:32;;;;;;;;;;;;;;;27.31;35.13;98704.94;4509037;31;34976;-85
2022/06/20 03:44:19;;;;;;;;;;;;;;;27.45;35.43;98701.44;4496396;31;34094;-85
2022/06/20 03:47:07;;;;;;;;;;;;;;;27.41;35.23;98702.56;4484657;31;35011;-85
2022/06/20 03:49:53;;;;;;;;;;;;;;;27.62;35.44;98703.03;4485332;31;35168;-86
2022/06/20 03:52:43;;;;;;;;;;;;;;;28.26;34.54;98703.28;4504413;31;35772;-84
2022/06/20 03:55:32;;;;;;;;;;;;;;;28.87;33.78;98701.81;4513404;31;34951;-84
2022/06/20 03:58:26;;;;;;;;;;;;;;;29.46;32.87;98688.69;4515125;31;34940;-85
2022/06/20 04:01:14;;;;;;;;;;;;;;;29.86;32.17;98699.19;4503175;31;36074;-85
2022/06/20 04:04:03;;;;;;;;;;;;;;;29.23;33.52;98705.53;4493991;31;34433;-85
2022/06/20 04:06:52;;;;;;;;;;;;;;;28.99;33.96;98703.63;4491441;31;34616;-85
2022/06/20 04:12:50;;;;;;;;;;;;;;;30.61;31.40;98703.38;4497708;31;36181;-84
2022/06/20 04:16:06;;;;;;;;;;;;;;;30.84;31.19;98705.19;4496724;31;34849;-84
2022/06/20 04:19:10;;;;;;;;;;;;;;;31.38;30.35;98715.19;4447921;31;34021;-87
2022/06/20 04:21:58;;;;;;;;;;;;;;;31.77;29.58;98702.22;4483710;32;35129;-85
2022/06/20 04:24:51;;;;;;;;;;;;;;;32.01;29.38;98704.72;4513549;31;35137;-87
2022/06/20 04:27:52;;;;;;;;;;;;;;;32.59;28.52;98696.34;4487540;31;34468;-85
2022/06/20 04:30:40;;;;;;;;;;;;;;;32.71;28.74;98703.31;4497398;31;34998;-85
2022/06/20 04:33:27;;;;;;;;;;;;;;;32.74;28.69;98697.69;4497657;31;35725;-85
2022/06/20 04:36:17;;;;;;;;;;;;;;;33.39;27.32;98691.09;4499716;31;33848;-85
2022/06/20 04:39:12;;;;;;;;;;;;;;;33.31;27.46;98701.69;4499610;31;35614;-86
2022/06/20 04:42:00;;;;;;;;;;;;;;;32.97;28.79;98697.56;4498594;31;34510;-85
2022/06/20 04:44:49;;;;;;;;;;;;;;;33.50;27.21;98697.37;4498397;31;34899;-85
2022/06/20 04:47:46;;;;;;;;;;;;;;;33.02;28.49;98696.16;4499387;31;35622;-85
2022/06/20 04:50:32;;;;;;;;;;;;;;;33.50;27.87;98700.06;4498230;31;34925;-85
2022/06/20 04:53:19;;;;;;;;;;;;;;;33.27;27.61;98694.03;4498538;31;34136;-86
2022/06/20 04:56:05;;;;;;;;;;;;;;;32.10;29.53;98697.75;4498538;31;35463;-85
2022/06/20 04:58:52;;;;;;;;;;;;;;;32.77;27.98;98705.50;4498341;31;35159;-86
2022/06/20 05:01:38;;;;;;;;;;;;;;;33.60;26.88;98695.56;4499465;31;37653;-85
2022/06/20 05:04:27;;;;;;;;;;;;;;;33.73;26.45;98696.16;4487017;31;35001;-85
2022/06/20 05:07:15;;;;;;;;;;;;;;;33.94;26.72;98698.72;4487223;31;35845;-85
2022/06/20 05:10:11;;;;;;;;;;;;;;;32.78;28.24;98691.09;4499440;31;36045;-86
2022/06/20 05:13:00;;;;;;;;;;;;;;;33.62;27.57;98694.44;4499541;31;35467;-85
2022/06/20 05:15:47;;;;;;;;;;;;;;;31.94;28.65;98704.41;4499438;31;33815;-86
2022/06/20 05:18:37;;;;;;;;;;;;;;;33.30;27.57;98705.34;4487163;31;35736;-85
2022/06/20 05:21:31;;;;;;;;;;;;;;;32.30;30.06;98704.97;4487599;31;35160;-86
2022/06/20 05:24:21;;;;;;;;;;;;;;;33.12;28.17;98705.13;4487267;31;34962;-85
2022/06/20 05:27:26;;;;;;;;;;;;;;;32.19;29.57;98715.75;4487269;31;35608;-85
2022/06/20 05:30:14;;;;;;;;;;;;;;;32.78;28.95;98715.25;4487261;31;35675;-85
2022/06/20 05:33:06;;;;;;;;;;;;;;;31.19;31.31;98714.94;4486817;31;35127;-85
2022/06/20 05:35:53;;;;;;;;;;;;;;;30.86;31.41;98721.09;4486962;31;34271;-86
2022/06/20 05:38:25;;;;;;;;;;;;;;;32.49;29.64;98730.28;4485074;31;33527;-84
2022/06/20 05:40:54;;;;;;;;;;;;;;;32.50;28.93;98721.25;4484903;31;34026;-85
2022/06/20 05:43:30;;;;;;;;;;;;;;;33.33;28.18;98721.19;4485542;31;34234;-85
2022/06/20 05:45:59;;;;;;;;;;;;;;;31.83;30.30;98723.16;4484855;31;33611;-85
2022/06/20 05:48:47;;;;;;;;;;;;;;;32.98;28.56;98713.53;4484544;31;32577;-85
2022/06/20 05:51:15;;;;;;;;;;;;;;;33.29;27.69;98714.38;4485081;31;33635;-85
2022/06/20 05:53:46;;;;;;;;;;;;;;;33.81;26.70;98709.75;4484751;31;33647;-85
2022/06/20 05:56:18;;;;;;;;;;;;;;;34.01;26.70;98717.88;4499207;31;34798;-86
2022/06/20 05:58:45;;;;;;;;;;;;;;;33.60;27.56;98711.69;4499130;31;34048;-85
2022/06/20 06:01:18;;;;;;;;;;;;;;;34.47;25.02;98721.72;4495024;31;34245;-84
2022/06/20 06:03:49;;;;;;;;;;;;;;;34.80;24.98;98732.03;4497724;31;34178;-85
2022/06/20 06:06:17;;;;;;;;;;;;;;;34.09;25.40;98724.25;4498025;31;34157;-85
2022/06/20 06:09:05;;;;;;;;;;;;;;;35.00;24.24;98729.31;4498730;31;33220;-85
2022/06/20 06:11:34;;;;;;;;;;;;;;;35.46;24.64;98724.88;4497652;31;34814;-86
2022/06/20 06:14:17;;;;;;;;;;;;;;;33.97;25.03;98730.72;4497965;31;34370;-85
2022/06/20 06:16:52;;;;;;;;;;;;;;;34.38;24.72;98716.19;4497394;31;34182;-84
2022/06/20 06:19:30;;;;;;;;;;;;;;;34.05;24.76;98722.00;4497594;31;32859;-85
2022/06/20 06:22:03;;;;;;;;;;;;;;;34.39;24.96;98715.19;4497667;31;34887;-85
2022/06/20 06:24:33;;;;;;;;;;;;;;;34.31;24.35;98716.91;4498779;31;34944;-85
2022/06/20 06:27:00;;;;;;;;;;;;;;;34.52;25.12;98711.41;4497500;31;34171;-84
2022/06/20 06:29:37;;;;;;;;;;;;;;;35.34;23.58;98710.75;4497430;31;33466;-86
2022/06/20 06:32:10;;;;;;;;;;;;;;;35.21;23.88;98708.41;4498767;31;33818;-85
2022/06/20 06:35:04;;;;;;;;;;;;;;;35.04;24.35;98709.19;4497136;31;34163;-84
2022/06/20 06:37:39;;;;;;;;;;;;;;;35.82;23.30;98710.53;4496100;31;34827;-84
2022/06/20 06:40:12;;;;;;;;;;;;;;;34.74;24.80;98708.41;4497533;31;34389;-85
2022/06/20 06:42:39;;;;;;;;;;;;;;;34.97;25.00;98711.59;4497353;31;35026;-85
2022/06/20 06:45:07;;;;;;;;;;;;;;;34.95;24.31;98716.28;4497223;31;34490;-86
2022/06/20 06:47:38;;;;;;;;;;;;;;;34.73;24.90;98712.06;4497029;31;33618;-85
2022/06/20 06:50:26;;;;;;;;;;;;;;;33.71;26.04;98711.56;4497565;31;33557;-85
2022/06/20 06:52:58;;;;;;;;;;;;;;;34.14;25.44;98705.87;4498553;31;34082;-87
2022/06/20 06:55:52;;;;;;;;;;;;;;;34.38;25.45;98713.50;4497497;31;34337;-84
2022/06/20 06:58:21;;;;;;;;;;;;;;;35.50;24.29;98716.41;4495922;31;34808;-85
2022/06/20 07:01:11;;;;;;;;;;;;;;;33.98;26.07;98707.38;4496745;31;33980;-84
2022/06/20 07:03:38;;;;;;;;;;;;;;;35.72;23.57;98698.09;4498368;31;35147;-85
2022/06/20 07:06:09;;;;;;;;;;;;;;;35.30;24.72;98699.44;4498194;31;35246;-85
2022/06/20 07:09:25;;;;;;;;;;;;;;;33.08;26.92;98690.28;4497346;31;34315;-83
2022/06/20 07:12:11;;;;;;;;;;;;;;;32.06;28.87;98693.62;4484044;31;33325;-85
2022/06/20 07:14:42;;;;;;;;;;;;;;;32.79;28.03;98684.72;4497760;31;35133;-85
2022/06/20 07:17:18;;;;;;;;;;;;;;;33.92;26.16;98687.28;4498285;31;34113;-85
2022/06/20 07:19:47;;;;;;;;;;;;;;;32.29;28.89;98686.34;4496631;31;35080;-85
2022/06/20 07:22:15;;;;;;;;;;;;;;;31.24;30.66;98684.13;4498295;31;33378;-87
2022/06/20 07:24:42;;;;;;;;;;;;;;;31.46;30.30;98685.09;4498910;31;35173;-84
2022/06/20 07:27:11;;;;;;;;;;;;;;;32.25;29.88;98685.75;4499998;31;34222;-85
2022/06/20 07:30:13;;;;;;;;;;;;;;;31.04;30.39;98684.84;4499884;31;34232;-85
2022/06/20 07:32:42;;;;;;;;;;;;;;;32.20;29.49;98691.50;4497355;31;33117;-84
2022/06/20 07:35:10;;;;;;;;;;;;;;;32.64;28.76;98681.53;4498895;31;34804;-84
2022/06/20 07:37:40;;;;;;;;;;;;;;;32.02;29.27;98678.78;4499077;31;34383;-84
2022/06/20 07:40:10;;;;;;;;;;;;;;;31.73;29.95;98669.44;4498713;31;34804;-84
2022/06/20 07:42:37;;;;;;;;;;;;;;;31.43;30.01;98663.91;4498837;31;33488;-84
2022/06/20 07:45:04;;;;;;;;;;;;;;;32.96;28.99;98661.81;4499831;31;34925;-84
2022/06/20 07:47:31;;;;;;;;;;;;;;;34.01;27.81;98656.03;4500178;31;34245;-85
2022/06/20 07:50:00;;;;;;;;;;;;;;;32.56;29.06;98650.97;4499916;31;34326;-85
2022/06/20 07:52:30;;;;;;;;;;;;;;;32.88;28.78;98656.22;4498886;31;33413;-84
2022/06/20 07:54:59;;;;;;;;;;;;;;;32.24;29.85;98662.59;4498738;31;34775;-84
2022/06/20 07:57:34;;;;;;;;;;;;;;;32.87;29.14;98660.72;4498672;31;34209;-85
2022/06/20 08:00:21;;;;;;;;;;;;;;;32.83;28.92;98664.66;4498167;31;34627;-84
2022/06/20 08:02:50;;;;;;;;;;;;;;;32.49;29.61;98668.56;4499830;31;32675;-84
2022/06/20 08:05:19;;;;;;;;;;;;;;;31.85;30.65;98667.63;4498432;31;33733;-84
2022/06/20 08:08:02;;;;;;;;;;;;;;;32.28;30.72;98657.78;4498609;31;35124;-84
2022/06/20 08:10:32;;;;;;;;;;;;;;;31.48;31.65;98665.25;4498704;31;34326;-84
2022/06/20 08:13:19;;;;;;;;;;;;;;;31.53;31.31;98661.34;4498661;31;34287;-84
2022/06/20 08:15:53;;;;;;;;;;;;;;;32.44;30.12;98647.50;4498502;31;34034;-84
2022/06/20 08:18:21;;;;;;;;;;;;;;;33.28;28.50;98647.38;4498524;31;34102;-84
2022/06/20 08:24:04;;;;;;;;;;;;;;;33.47;29.53;98642.06;4695574;26;20062;-84
2022/06/20 08:26:33;;;;;;;;;;;;;;;33.38;28.63;98635.66;4438451;32;34933;-86
2022/06/20 08:29:02;;;;;;;;;;;;;;;32.89;29.05;98642.66;4438461;32;32793;-86
2022/06/20 08:31:30;;;;;;;;;;;;;;;33.08;27.95;98627.66;4425550;32;32635;-87
2022/06/20 08:34:12;;;;;;;;;;;;;;;33.96;27.62;98629.53;4438288;32;33765;-87
2022/06/20 08:36:46;;;;;;;;;;;;;;;34.66;26.98;98632.88;4425370;32;33145;-88
2022/06/20 08:39:19;;;;;;;;;;;;;;;33.18;28.57;98631.19;4437774;32;33874;-86
2022/06/20 08:41:46;;;;;;;;;;;;;;;33.70;28.79;98634.59;4451045;32;33645;-86
2022/06/20 08:44:37;;;;;;;;;;;;;;;32.90;29.56;98633.62;4450846;32;33133;-85
2022/06/20 08:47:23;;;;;;;;;;;;;;;33.86;28.71;98632.19;4444995;32;33865;-86
2022/06/20 08:50:02;;;;;;;;;;;;;;;33.98;27.20;98632.06;4450609;32;33689;-84
2022/06/20 08:52:56;;;;;;;;;;;;;;;34.77;26.93;98627.31;4428949;32;34017;-86
2022/06/20 08:55:36;;;;;;;;;;;;;;;34.90;27.55;98631.53;4448554;32;32850;-87
2022/06/20 08:58:24;;;;;;;;;;;;;;;35.19;26.33;98626.03;4452475;32;34045;-86
2022/06/20 09:00:57;;;;;;;;;;;;;;;35.12;26.75;98620.41;4426867;32;34378;-88
2022/06/20 09:03:30;;;;;;;;;;;;;;;34.33;27.23;98623.44;4464548;32;34167;-89
2022/06/20 09:06:05;;;;;;;;;;;;;;;33.61;28.02;98624.69;4451624;32;31453;-87
2022/06/20 09:08:51;;;;;;;;;;;;;;;34.43;28.02;98616.19;4449686;32;33873;-88
2022/06/20 09:11:25;;;;;;;;;;;;;;;35.42;26.04;98621.06;4453133;32;34009;-84
2022/06/20 09:13:58;;;;;;;;;;;;;;;34.29;27.16;98605.87;4464906;32;34229;-88
2022/06/20 09:16:35;;;;;;;;;;;;;;;34.10;27.10;98606.78;4458807;32;33521;-84
2022/06/20 09:19:06;;;;;;;;;;;;;;;33.77;27.00;98598.09;4453187;32;33850;-85
2022/06/20 09:21:42;;;;;;;;;;;;;;;34.64;26.64;98599.03;4453110;32;35056;-86
2022/06/20 09:24:13;;;;;;;;;;;;;;;33.90;25.78;98590.59;4444235;32;34054;-88
2022/06/20 09:26:40;;;;;;;;;;;;;;;34.68;25.19;98584.28;4423776;32;32874;-87
2022/06/20 09:29:27;;;;;;;;;;;;;;;34.15;25.77;98582.97;4436715;32;33922;-88
2022/06/20 09:32:12;;;;;;;;;;;;;;;35.06;25.02;98576.03;4437686;32;34649;-89
2022/06/20 09:35:05;;;;;;;;;;;;;;;34.51;26.00;98577.78;4433511;32;34021;-85
2022/06/20 09:37:36;;;;;;;;;;;;;;;35.28;24.96;98566.69;4421623;32;32858;-83
2022/06/20 09:40:03;;;;;;;;;;;;;;;34.66;24.96;98554.78;4422156;32;34217;-83
2022/06/20 09:42:34;;;;;;;;;;;;;;;34.36;24.55;98554.03;4422344;32;34313;-85
2022/06/20 09:45:01;;;;;;;;;;;;;;;34.95;24.95;98554.66;4433078;32;34243;-85
2022/06/20 09:47:38;;;;;;;;;;;;;;;34.44;26.17;98555.13;4431651;32;32875;-86
2022/06/20 09:50:25;;;;;;;;;;;;;;;34.98;24.82;98564.28;4436922;32;35584;-90
2022/06/20 09:52:52;;;;;;;;;;;;;;;34.63;25.08;98555.09;4435933;32;34959;-83
2022/06/20 09:55:23;;;;;;;;;;;;;;;34.76;24.51;98547.53;4437269;32;34133;-86
2022/06/20 09:57:53;;;;;;;;;;;;;;;35.02;25.47;98549.56;4435585;32;33516;-87
2022/06/20 10:00:23;;;;;;;;;;;;;;;35.46;24.77;98555.06;4437215;32;34070;-83
2022/06/20 10:02:54;;;;;;;;;;;;;;;35.30;24.46;98550.34;4435430;32;34301;-85
2022/06/20 10:05:34;;;;;;;;;;;;;;;35.29;24.50;98541.44;4435495;32;35178;-86
2022/06/20 10:08:06;;;;;;;;;;;;;;;35.86;24.27;98529.50;4437662;32;33133;-85
2022/06/20 10:10:35;;;;;;;;;;;;;;;35.75;24.75;98536.81;4435936;32;33476;-84
2022/06/20 10:13:12;;;;;;;;;;;;;;;36.31;23.93;98534.75;4436557;32;34434;-85
2022/06/20 10:15:42;;;;;;;;;;;;;;;36.17;24.74;98530.75;4434536;32;34303;-88
2022/06/20 10:18:12;;;;;;;;;;;;;;;35.42;24.96;98524.91;4437176;32;34373;-85
2022/06/20 10:20:48;;;;;;;;;;;;;;;34.58;25.72;98525.06;4437002;32;34960;-91
2022/06/20 10:23:18;;;;;;;;;;;;;;;35.37;25.64;98532.56;4435231;32;34383;-86
2022/06/20 10:25:55;;;;;;;;;;;;;;;35.63;24.55;98526.44;4434670;32;35024;-85
2022/06/20 10:28:25;;;;;;;;;;;;;;;35.62;23.08;98533.69;4435887;32;34644;-86
2022/06/20 10:30:59;;;;;;;;;;;;;;;35.51;23.97;98532.06;4435526;32;34123;-86
2022/06/20 10:33:32;;;;;;;;;;;;;;;35.75;23.63;98522.50;4433771;32;34401;-86
2022/06/20 10:36:08;;;;;;;;;;;;;;;35.36;23.85;98519.25;4435673;32;34366;-84
2022/06/20 10:38:39;;;;;;;;;;;;;;;35.82;23.62;98527.12;4435775;32;33170;-88
2022/06/20 10:41:19;;;;;;;;;;;;;;;36.02;23.36;98516.16;4434406;32;35069;-85
2022/06/20 10:44:05;;;;;;;;;;;;;;;36.24;21.69;98515.63;4435925;32;35396;-87
2022/06/20 10:46:35;;;;;;;;;;;;;;;36.47;21.46;98504.31;4435739;32;35088;-86
2022/06/20 10:49:21;;;;;;;;;;;;;;;36.12;22.24;98500.72;4435888;32;33091;-86
2022/06/20 10:52:06;;;;;;;;;;;;;;;36.09;21.73;98501.03;4437841;32;32233;-88
2022/06/20 10:54:52;;;;;;;;;;;;;;;36.39;22.05;98505.09;4433776;32;34146;-86
2022/06/20 10:57:38;;;;;;;;;;;;;;;36.44;21.96;98516.25;4437324;32;34374;-86
2022/06/20 11:00:06;;;;;;;;;;;;;;;36.08;21.31;98509.31;4437575;32;33248;-87
2022/06/20 11:02:52;;;;;;;;;;;;;;;35.48;21.65;98504.53;4422053;32;35092;-85
2022/06/20 11:05:41;;;;;;;;;;;;;;;35.85;21.49;98498.16;4421931;32;35360;-85
2022/06/20 11:08:17;;;;;;;;;;;;;;;36.33;20.50;98485.97;4433911;32;34268;-87
2022/06/20 11:10:45;;;;;;;;;;;;;;;36.00;19.75;98485.81;4426607;32;34241;-91
2022/06/20 11:13:12;;;;;;;;;;;;;;;36.17;20.40;98492.97;4437760;32;35051;-84
2022/06/20 11:15:42;;;;;;;;;;;;;;;36.44;19.92;98483.00;4436542;32;33566;-85
2022/06/20 11:18:29;;;;;;;;;;;;;;;36.32;20.22;98473.50;4437565;32;33929;-86
2022/06/20 11:20:58;;;;;;;;;;;;;;;36.47;19.18;98475.47;4436164;32;33443;-84
2022/06/20 11:23:31;;;;;;;;;;;;;;;36.71;19.37;98468.47;4411220;32;786501;-84
2022/06/20 11:26:04;;;;;;;;;;;;;;;36.54;20.54;98465.72;4436897;32;34388;-83
2022/06/20 11:28:50;;;;;;;;;;;;;;;36.87;19.70;98468.53;4437099;32;33927;-83
2022/06/20 11:31:21;;;;;;;;;;;;;;;36.96;19.54;98467.56;4438359;32;32958;-83
2022/06/20 11:34:08;;;;;;;;;;;;;;;37.00;19.41;98473.47;4421074;32;32702;-86
2022/06/20 11:36:35;;;;;;;;;;;;;;;37.49;18.22;98482.53;4409975;32;35303;-84
2022/06/20 11:39:09;;;;;;;;;;;;;;;37.23;19.12;98484.50;4423179;32;34857;-85
2022/06/20 11:42:01;;;;;;;;;;;;;;;36.27;19.14;98472.12;4411178;32;34126;-83
2022/06/20 11:44:48;;;;;;;;;;;;;;;37.19;19.08;98489.38;4449203;32;34072;-84
2022/06/20 11:47:19;;;;;;;;;;;;;;;36.96;19.05;98477.53;4438335;32;34505;-85
2022/06/20 11:49:56;;;;;;;;;;;;;;;36.92;19.47;98474.28;4436336;32;34352;-88
2022/06/20 11:52:25;;;;;;;;;;;;;;;36.60;19.45;98476.87;4437903;32;33398;-87
2022/06/20 11:54:56;;;;;;;;;;;;;;;37.04;19.97;98474.81;4436886;32;33593;-86
2022/06/20 11:57:42;;;;;;;;;;;;;;;37.46;19.88;98482.00;4438453;32;35480;-93
2022/06/20 12:00:14;;;;;;;;;;;;;;;37.42;19.60;98480.66;4438846;32;34289;-94
2022/06/20 12:02:45;;;;;;;;;;;;;;;36.93;18.64;98480.50;4436885;32;33347;-87
2022/06/20 12:05:22;;;;;;;;;;;;;;;37.79;18.48;98469.31;4438586;32;34163;-85
2022/06/20 12:07:49;;;;;;;;;;;;;;;37.29;19.98;98464.91;4438971;32;35248;-86
2022/06/20 12:10:19;;;;;;;;;;;;;;;37.72;19.78;98462.91;4438244;32;34315;-87
2022/06/20 12:12:48;;;;;;;;;;;;;;;37.38;18.84;98476.56;4438574;32;32676;-87
2022/06/20 12:15:24;;;;;;;;;;;;;;;37.26;18.18;98467.94;4423698;32;35182;-84
2022/06/20 12:17:52;;;;;;;;;;;;;;;37.31;18.61;98454.75;4438094;32;35359;-86
2022/06/20 12:23:21;;;;;;;;;;;;;;;36.89;18.19;98452.13;4422404;32;33411;-85
2022/06/20 12:26:05;;;;;;;;;;;;;;;37.21;18.05;98452.25;4423353;32;33893;-95
2022/06/20 12:28:37;;;;;;;;;;;;;;;37.82;18.19;98449.22;4408290;32;34220;-88
2022/06/20 12:31:07;;;;;;;;;;;;;;;37.86;17.99;98448.69;4408375;32;34413;-85
2022/06/20 12:33:36;;;;;;;;;;;;;;;37.43;19.13;98452.59;4422703;32;33470;-87
2022/06/20 12:36:10;;;;;;;;;;;;;;;37.06;18.00;98448.50;4408179;32;33715;-87
2022/06/20 12:38:39;;;;;;;;;;;;;;;36.98;18.51;98432.28;4404824;32;34409;-88
2022/06/20 12:41:09;;;;;;;;;;;;;;;37.18;18.30;98439.06;4408107;32;34024;-85
2022/06/20 12:43:39;;;;;;;;;;;;;;;37.25;17.95;98434.66;4405803;32;33352;-85
2022/06/20 12:46:07;;;;;;;;;;;;;;;37.55;18.44;98429.63;4419430;32;34077;-88
2022/06/20 12:48:37;;;;;;;;;;;;;;;37.28;18.00;98427.22;4421609;32;32866;-87
2022/06/20 12:51:10;;;;;;;;;;;;;;;37.28;17.87;98421.81;4426617;32;34368;-91
2022/06/20 12:53:46;;;;;;;;;;;;;;;37.70;17.16;98410.84;4408216;32;33212;-86
2022/06/20 12:56:20;;;;;;;;;;;;;;;37.67;18.62;98422.84;4422303;32;34059;-87
2022/06/20 12:59:02;;;;;;;;;;;;;;;38.06;18.11;98424.81;4421869;32;34211;-86
2022/06/20 13:02:02;;;;;;;;;;;;;;;37.87;17.99;98430.59;4422622;32;34301;-92
2022/06/20 13:04:48;;;;;;;;;;;;;;;37.93;18.38;98424.53;4372461;32;33259;-90
2022/06/20 13:07:23;;;;;;;;;;;;;;;37.99;17.52;98415.69;4406519;32;33919;-84
2022/06/20 13:10:09;;;;;;;;;;;;;;;37.20;18.61;98423.53;4405203;32;34339;-87
2022/06/20 13:12:44;;;;;;;;;;;;;;;37.86;17.83;98410.81;4418458;32;34291;-88
2022/06/20 13:15:24;;;;;;;;;;;;;;;37.86;18.26;98420.78;4395299;32;34194;-87
2022/06/20 13:17:51;;;;;;;;;;;;;;;38.07;18.32;98418.38;4420235;32;35035;-88
2022/06/20 13:20:37;;;;;;;;;;;;;;;38.09;17.47;98421.78;4433466;32;34042;-89
2022/06/20 13:23:14;;;;;;;;;;;;;;;38.22;18.14;98416.63;4422874;32;32562;-88
2022/06/20 13:25:44;;;;;;;;;;;;;;;38.40;17.27;98413.72;4413071;32;32197;-84
2022/06/20 13:28:11;;;;;;;;;;;;;;;38.45;17.71;98421.31;4407679;32;34615;-90
2022/06/20 13:30:49;;;;;;;;;;;;;;;38.54;17.53;98414.84;4421554;32;34966;-85
2022/06/20 13:33:35;;;;;;;;;;;;;;;38.30;17.21;98409.50;4408183;32;35041;-87
2022/06/20 13:36:22;;;;;;;;;;;;;;;38.35;17.30;98412.59;4421889;32;33201;-87
2022/06/20 13:38:56;;;;;;;;;;;;;;;38.23;17.32;98403.97;4407735;32;34987;-87
2022/06/20 13:41:28;;;;;;;;;;;;;;;38.62;16.82;98411.25;4407397;32;34759;-90
2022/06/20 13:43:58;;;;;;;;;;;;;;;38.35;17.10;98418.00;4407535;32;33873;-86
2022/06/20 13:46:35;;;;;;;;;;;;;;;38.49;16.88;98411.81;4406201;32;33111;-88
2022/06/20 13:49:06;;;;;;;;;;;;;;;38.59;16.59;98407.03;4407005;32;33918;-86
2022/06/20 13:51:44;;;;;;;;;;;;;;;38.53;17.32;98402.34;4405221;32;35079;-88
2022/06/20 13:54:21;;;;;;;;;;;;;;;38.15;16.99;98396.72;4406481;32;35593;-87
2022/06/20 13:56:59;;;;;;;;;;;;;;;38.43;17.66;98391.72;4395540;32;33263;-87
2022/06/20 13:59:30;;;;;;;;;;;;;;;38.54;16.83;98393.19;4408211;32;34962;-89
2022/06/20 14:01:58;;;;;;;;;;;;;;;38.26;17.75;98383.81;4395639;32;33073;-86
2022/06/20 14:04:27;;;;;;;;;;;;;;;38.54;17.35;98387.78;4405709;32;34288;-85